createdAt,value
2023-03-04T00:01:29.343Z,8.70
2023-03-04T00:04:01.833Z,10.47
2023-03-04T00:06:40.533Z,9.50
2023-03-04T00:09:31.261Z,8.97
2023-03-04T00:12:14.764Z,9.33
2023-03-04T00:14:58.424Z,9.40
2023-03-04T00:17:49.205Z,9.77
2023-03-04T00:20:30.332Z,9.17
2023-03-04T00:23:05.866Z,8.93
2023-03-04T00:25:54.484Z,7.60
2023-03-04T00:28:32.567Z,7.93
2023-03-04T00:31:18.128Z,8.13
2023-03-04T00:34:06.368Z,9.00
2023-03-04T00:36:47.302Z,8.23
2023-03-04T00:39:47.317Z,8.57
2023-03-04T00:42:33.756Z,8.03
2023-03-04T00:45:24.316Z,9.00
2023-03-04T00:48:04.345Z,7.57
2023-03-04T00:50:52.467Z,8.57
2023-03-04T00:53:38.300Z,7.73
2023-03-04T00:56:27.278Z,8.47
2023-03-04T00:59:07.030Z,8.63
2023-03-04T01:02:05.126Z,7.33
2023-03-04T01:04:56.876Z,7.97
2023-03-04T01:07:33.898Z,8.80
2023-03-04T01:10:19.689Z,8.40
2023-03-04T01:13:07.919Z,8.60
2023-03-04T01:16:13.549Z,7.90
2023-03-04T01:18:47.579Z,7.20
2023-03-04T01:21:37.165Z,8.30
2023-03-04T01:24:34.370Z,8.67
2023-03-04T01:27:21.497Z,8.60
2023-03-04T01:30:03.957Z,8.87
2023-03-04T01:32:57.220Z,9.30
2023-03-04T01:35:57.922Z,8.70
2023-03-04T01:38:55.189Z,8.83
2023-03-04T01:41:32.450Z,8.43
2023-03-04T01:44:14.545Z,8.27
2023-03-04T01:46:59.270Z,9.57
2023-03-04T01:49:50.070Z,9.13
2023-03-04T01:52:51.398Z,8.00
2023-03-04T01:55:26.213Z,9.10
2023-03-04T01:58:04.081Z,9.50
2023-03-04T02:01:03.978Z,9.30
2023-03-04T02:03:37.419Z,9.53
2023-03-04T02:06:47.133Z,10.40
2023-03-04T02:09:37.270Z,10.00
2023-03-04T02:12:21.339Z,9.60
2023-03-04T02:15:05.136Z,10.10
2023-03-04T02:17:48.683Z,9.93
2023-03-04T02:20:48.141Z,10.60
2023-03-04T02:23:48.791Z,9.80
2023-03-04T02:26:55.339Z,9.93
2023-03-04T02:29:39.566Z,9.40
2023-03-04T02:32:19.469Z,9.13
2023-03-04T02:35:03.358Z,9.80
2023-03-04T02:37:36.733Z,8.93
2023-03-04T02:40:12.579Z,8.93
2023-03-04T02:43:12.568Z,9.00
2023-03-04T02:45:55.162Z,8.93
2023-03-04T02:48:52.963Z,10.13
2023-03-04T02:51:37.460Z,8.90
2023-03-04T02:54:34.228Z,9.23
2023-03-04T02:57:12.085Z,9.33
2023-03-04T02:59:50.035Z,8.87
2023-03-04T03:02:31.788Z,9.30
2023-03-04T03:05:16.475Z,8.60
2023-03-04T03:07:57.669Z,9.83
2023-03-04T03:11:04.345Z,9.30
2023-03-04T03:14:02.551Z,9.80
2023-03-04T03:17:02.806Z,9.63
2023-03-04T03:19:44.890Z,8.83
2023-03-04T03:22:17.919Z,9.17
2023-03-04T03:25:04.110Z,9.23
2023-03-04T03:27:39.745Z,9.47
2023-03-04T03:30:29.980Z,11.37
2023-03-04T03:33:41.942Z,10.03
2023-03-04T03:36:22.380Z,9.90
2023-03-04T03:39:05.222Z,9.53
2023-03-04T03:41:41.871Z,9.47
2023-03-04T03:44:16.427Z,10.40
2023-03-04T03:47:10.485Z,10.23
2023-03-04T03:50:23.220Z,11.97
2023-03-04T03:53:19.288Z,10.67
2023-03-04T03:55:50.829Z,11.93
2023-03-04T03:58:23.536Z,11.60
2023-03-04T04:01:09.069Z,12.03
2023-03-04T04:03:40.403Z,12.97
2023-03-04T04:06:23.566Z,12.07
2023-03-04T04:09:10.222Z,11.70
2023-03-04T04:12:18.068Z,13.50
2023-03-04T04:14:53.397Z,12.83
2023-03-04T04:17:44.065Z,11.77
2023-03-04T04:20:26.286Z,12.03
2023-03-04T04:23:14.135Z,11.97
2023-03-04T04:26:01.104Z,10.93
2023-03-04T04:28:50.378Z,10.53
2023-03-04T04:31:59.070Z,11.93
2023-03-04T04:34:50.795Z,12.53
2023-03-04T04:37:32.215Z,10.97
2023-03-04T04:40:15.657Z,11.83
2023-03-04T04:42:57.533Z,10.50
2023-03-04T04:45:50.252Z,10.90
2023-03-04T04:48:41.236Z,11.77
2023-03-04T04:51:40.790Z,10.80
2023-03-04T04:54:14.595Z,11.50
2023-03-04T04:57:01.364Z,11.27
2023-03-04T04:59:58.572Z,11.53
2023-03-04T05:02:31.610Z,10.80
2023-03-04T05:05:29.316Z,11.20
2023-03-04T05:08:23.403Z,11.30
2023-03-04T05:10:55.809Z,10.97
2023-03-04T05:13:38.941Z,10.97
2023-03-04T05:16:27.220Z,10.57
2023-03-04T05:19:29.600Z,10.57
2023-03-04T05:22:11.260Z,10.53
2023-03-04T05:24:51.966Z,11.73
2023-03-04T05:27:27.630Z,10.40
2023-03-04T05:30:22.573Z,11.23
2023-03-04T05:32:59.927Z,10.53
2023-03-04T05:36:03.816Z,11.80
2023-03-04T05:39:00.700Z,10.77
2023-03-04T05:41:38.066Z,11.33
2023-03-04T05:44:28.628Z,11.67
2023-03-04T05:47:50.390Z,11.87
2023-03-04T05:50:41.960Z,10.17
2023-03-04T05:53:42.836Z,11.67
2023-03-04T05:56:23.223Z,12.43
2023-03-04T05:59:02.722Z,11.30
2023-03-04T06:01:46.672Z,11.17
2023-03-04T06:04:20.424Z,11.60
2023-03-04T06:06:51.345Z,12.50
2023-03-04T06:09:50.109Z,12.40
2023-03-04T06:12:48.174Z,13.70
2023-03-04T06:15:47.856Z,13.47
2023-03-04T06:18:22.807Z,12.90
2023-03-04T06:21:01.261Z,12.60
2023-03-04T06:23:39.052Z,14.23
2023-03-04T06:26:27.209Z,13.80
2023-03-04T06:29:06.078Z,18.37
2023-03-04T06:31:45.539Z,29.07
2023-03-04T06:34:30.490Z,15.57
2023-03-04T06:37:32.867Z,20.57
2023-03-04T06:40:19.177Z,17.60
2023-03-04T06:43:06.568Z,15.90
2023-03-04T06:45:41.788Z,12.80
2023-03-04T06:48:35.903Z,12.87
2023-03-04T06:51:39.103Z,11.23
2023-03-04T06:54:49.018Z,12.60
2023-03-04T06:57:43.255Z,13.47
2023-03-04T07:00:35.210Z,13.37
2023-03-04T07:03:06.867Z,13.37
2023-03-04T07:05:37.739Z,13.23
2023-03-04T07:08:28.038Z,13.50
2023-03-04T07:11:04.447Z,14.37
2023-03-04T07:14:03.066Z,13.53
2023-03-04T07:16:43.268Z,12.83
2023-03-04T07:19:25.350Z,14.30
2023-03-04T07:22:04.828Z,14.70
2023-03-04T07:24:53.811Z,15.00
2023-03-04T07:27:38.903Z,14.90
2023-03-04T07:30:36.537Z,14.83
2023-03-04T07:33:35.391Z,14.63
2023-03-04T07:36:20.554Z,13.60
2023-03-04T07:39:09.990Z,13.13
2023-03-04T07:41:56.781Z,14.33
2023-03-04T07:44:58.562Z,13.87
2023-03-04T07:47:41.823Z,14.57
2023-03-04T07:50:25.326Z,15.13
2023-03-04T07:52:59.608Z,15.00
2023-03-04T07:55:32.504Z,15.00
2023-03-04T07:58:31.050Z,16.00
2023-03-04T08:01:23.300Z,16.10
2023-03-04T08:04:08.474Z,16.67
2023-03-04T08:06:45.355Z,14.77
2023-03-04T08:09:33.469Z,13.70
2023-03-04T08:12:06.457Z,15.07
2023-03-04T08:15:03.513Z,15.03
2023-03-04T08:18:07.339Z,18.30
2023-03-04T08:20:50.360Z,18.53
2023-03-04T08:23:46.500Z,18.73
2023-03-04T08:26:33.360Z,16.93
2023-03-04T08:29:23.458Z,17.87
2023-03-04T08:32:12.092Z,16.73
2023-03-04T08:34:49.796Z,16.50
2023-03-04T08:37:26.543Z,15.97
2023-03-04T08:40:26.533Z,16.87
2023-03-04T08:43:02.806Z,17.10
2023-03-04T08:45:41.822Z,16.20
2023-03-04T08:48:14.406Z,16.97
2023-03-04T08:50:55.916Z,16.03
2023-03-04T08:53:29.157Z,16.73
2023-03-04T08:56:04.004Z,16.07
2023-03-04T08:58:39.254Z,14.97
2023-03-04T09:01:21.407Z,16.70
2023-03-04T09:03:56.580Z,16.43
2023-03-04T09:06:40.433Z,14.90
2023-03-04T09:09:15.443Z,15.10
2023-03-04T09:11:52.049Z,15.40
2023-03-04T09:14:39.770Z,15.67
2023-03-04T09:17:14.137Z,15.73
2023-03-04T09:20:04.433Z,15.17
2023-03-04T09:22:41.017Z,14.90
2023-03-04T09:25:20.230Z,14.73
2023-03-04T09:28:09.444Z,15.33
2023-03-04T09:30:50.783Z,15.33
2023-03-04T09:33:32.211Z,14.83
2023-03-04T09:36:20.818Z,15.07
2023-03-04T09:39:07.766Z,14.87
2023-03-04T09:41:47.734Z,16.10
2023-03-04T09:44:26.606Z,15.90
2023-03-04T09:47:06.132Z,15.67
2023-03-04T09:49:47.695Z,15.03
2023-03-04T09:52:45.270Z,15.13
2023-03-04T09:55:38.890Z,14.97
2023-03-04T09:58:43.751Z,15.67
2023-03-04T10:01:27.652Z,14.27
2023-03-04T10:04:12.663Z,15.30
2023-03-04T10:06:47.267Z,14.87
2023-03-04T10:09:29.763Z,14.50
2023-03-04T10:12:21.226Z,14.20
2023-03-04T10:15:03.577Z,13.80
2023-03-04T10:17:47.990Z,13.80
2023-03-04T10:20:26.678Z,13.50
2023-03-04T10:23:10.835Z,14.47
2023-03-04T10:25:59.299Z,16.17
2023-03-04T10:28:43.830Z,13.07
2023-03-04T10:31:32.063Z,13.40
2023-03-04T10:34:12.882Z,14.50
2023-03-04T10:37:11.386Z,13.67
2023-03-04T10:39:57.464Z,13.87
2023-03-04T10:42:53.315Z,13.60
2023-03-04T10:45:37.049Z,13.47
2023-03-04T10:48:27.826Z,13.47
2023-03-04T10:51:23.551Z,13.23
2023-03-04T10:54:03.106Z,13.17
2023-03-04T10:56:47.840Z,13.40
2023-03-04T10:59:51.863Z,12.03
2023-03-04T11:02:35.171Z,11.77
2023-03-04T11:05:22.995Z,12.13
2023-03-04T11:08:02.844Z,11.07
2023-03-04T11:10:50.770Z,11.87
2023-03-04T11:13:31.262Z,9.83
2023-03-04T11:16:31.460Z,11.20
2023-03-04T11:19:20.162Z,10.23
2023-03-04T11:22:03.516Z,9.57
2023-03-04T11:24:50.432Z,15.07
2023-03-04T11:27:42.483Z,10.40
2023-03-04T11:30:39.331Z,11.10
2023-03-04T11:33:29.409Z,10.83
2023-03-04T11:36:33.998Z,10.33
2023-03-04T11:39:29.385Z,9.77
2023-03-04T11:42:09.104Z,11.53
2023-03-04T11:44:45.290Z,25.20
2023-03-04T11:47:38.527Z,10.63
2023-03-04T11:50:43.422Z,9.97
2023-03-04T11:53:41.071Z,13.07
2023-03-04T11:56:41.064Z,10.97
2023-03-04T12:00:07.762Z,12.47
2023-03-04T12:03:07.196Z,14.50
2023-03-04T12:05:57.609Z,14.33
2023-03-04T12:09:04.671Z,12.80
2023-03-04T12:11:57.828Z,14.27
2023-03-04T12:14:41.792Z,17.03
2023-03-04T12:17:52.468Z,16.83
2023-03-04T12:20:49.519Z,18.50
2023-03-04T12:23:52.640Z,19.90
2023-03-04T12:26:53.202Z,16.20
2023-03-04T12:29:38.654Z,18.60
2023-03-04T12:32:24.111Z,19.10
2023-03-04T12:35:43.236Z,18.10
2023-03-04T12:38:44.023Z,15.23
2023-03-04T12:41:39.471Z,15.43
2023-03-04T12:44:19.579Z,13.10
2023-03-04T12:47:19.023Z,16.20
2023-03-04T12:50:10.251Z,12.93
2023-03-04T12:52:58.673Z,13.70
2023-03-04T12:55:40.061Z,14.70
2023-03-04T12:58:33.528Z,12.53
2023-03-04T13:01:30.463Z,14.47
2023-03-04T13:04:30.839Z,12.40
2023-03-04T13:07:28.011Z,14.03
2023-03-04T13:10:17.574Z,14.93
2023-03-04T13:12:55.964Z,13.57
2023-03-04T13:15:46.462Z,11.83
2023-03-04T13:18:40.159Z,12.13
2023-03-04T13:21:27.106Z,13.70
2023-03-04T13:23:59.292Z,13.00
2023-03-04T13:26:37.853Z,13.83
2023-03-04T13:29:39.703Z,12.83
2023-03-04T13:32:44.306Z,16.17
2023-03-04T13:36:04.472Z,15.87
2023-03-04T13:38:42.911Z,13.67
2023-03-04T13:41:37.515Z,13.10
2023-03-04T13:45:03.000Z,16.33
2023-03-04T13:47:56.005Z,15.27
2023-03-04T13:50:50.326Z,28.87
2023-03-04T13:53:55.549Z,33.53
2023-03-04T13:56:43.551Z,24.20
2023-03-04T13:59:36.139Z,40.20
2023-03-04T14:02:23.015Z,50.10
2023-03-04T14:05:03.600Z,30.30
2023-03-04T14:07:43.595Z,34.27
2023-03-04T14:10:29.479Z,16.07
2023-03-04T14:13:11.614Z,15.30
2023-03-04T14:16:03.674Z,20.97
2023-03-04T14:18:41.435Z,13.97
2023-03-04T14:21:18.838Z,13.83
2023-03-04T14:24:06.392Z,13.13
2023-03-04T14:26:45.151Z,12.73
2023-03-04T14:29:32.273Z,13.07
2023-03-04T14:32:09.102Z,13.77
2023-03-04T14:34:42.023Z,16.17
2023-03-04T14:37:25.852Z,13.80
2023-03-04T14:40:08.779Z,13.00
2023-03-04T14:43:16.359Z,13.60
2023-03-04T14:45:56.319Z,14.37
2023-03-04T14:48:39.682Z,14.50
2023-03-04T14:51:46.942Z,13.97
2023-03-04T14:54:49.486Z,15.40
2023-03-04T14:57:39.771Z,16.77
2023-03-04T15:00:41.417Z,16.57
2023-03-04T15:03:30.646Z,16.00
2023-03-04T15:06:18.332Z,18.03
2023-03-04T15:09:02.710Z,15.73
2023-03-04T15:11:55.913Z,14.57
2023-03-04T15:14:51.556Z,14.87
2023-03-04T15:17:39.272Z,14.83
2023-03-04T15:20:38.230Z,13.93
2023-03-04T15:23:15.534Z,13.60
2023-03-04T15:25:59.863Z,13.97
2023-03-04T15:28:42.840Z,12.30
2023-03-04T15:31:22.581Z,12.90
2023-03-04T15:34:20.113Z,13.37
2023-03-04T15:37:01.108Z,14.47
2023-03-04T15:39:46.293Z,13.53
2023-03-04T15:42:31.672Z,13.20
2023-03-04T15:45:27.673Z,12.63
2023-03-04T15:48:06.718Z,12.63
2023-03-04T15:51:00.769Z,13.57
2023-03-04T15:53:46.800Z,12.70
2023-03-04T15:56:22.601Z,14.00
2023-03-04T15:58:59.640Z,14.50
2023-03-04T16:01:36.121Z,12.43
2023-03-04T16:04:20.331Z,13.93
2023-03-04T16:07:03.780Z,12.27
2023-03-04T16:09:59.851Z,12.40
2023-03-04T16:12:55.695Z,12.30
2023-03-04T16:15:29.918Z,12.47
2023-03-04T16:18:24.175Z,11.13
2023-03-04T16:21:20.991Z,12.43
2023-03-04T16:24:38.231Z,12.07
2023-03-04T16:27:18.546Z,12.07
2023-03-04T16:29:59.170Z,12.47
2023-03-04T16:32:49.190Z,12.37
2023-03-04T16:35:38.539Z,13.00
2023-03-04T16:38:35.932Z,12.97
2023-03-04T16:41:19.932Z,12.37
2023-03-04T16:43:57.079Z,12.37
2023-03-04T16:46:31.221Z,12.63
2023-03-04T16:49:24.340Z,12.60
2023-03-04T16:52:21.457Z,12.57
2023-03-04T16:55:19.219Z,12.90
2023-03-04T16:58:18.789Z,12.90
2023-03-04T17:01:15.369Z,11.87
2023-03-04T17:03:57.002Z,12.73
2023-03-04T17:07:21.618Z,12.50
2023-03-04T17:10:02.288Z,13.13
2023-03-04T17:12:39.620Z,13.00
2023-03-04T17:15:32.632Z,12.67
2023-03-04T17:18:20.856Z,11.90
2023-03-04T17:21:11.427Z,11.23
2023-03-04T17:24:00.332Z,12.07
2023-03-04T17:26:46.190Z,12.00
2023-03-04T17:29:16.999Z,12.13
2023-03-04T17:32:06.911Z,12.57
2023-03-04T17:34:42.561Z,12.37
2023-03-04T17:37:42.312Z,13.07
2023-03-04T17:40:34.322Z,12.67
2023-03-04T17:43:27.104Z,12.33
2023-03-04T17:46:11.271Z,13.03
2023-03-04T17:48:56.890Z,13.70
2023-03-04T17:51:49.517Z,13.33
2023-03-04T17:54:40.950Z,14.03
2023-03-04T17:57:16.292Z,13.53
2023-03-04T18:00:07.499Z,14.30
2023-03-04T18:02:50.413Z,12.70
2023-03-04T18:05:50.340Z,12.43
2023-03-04T18:08:34.818Z,12.93
2023-03-04T18:11:12.500Z,13.57
2023-03-04T18:13:49.386Z,13.43
2023-03-04T18:16:28.538Z,14.10
2023-03-04T18:19:09.530Z,14.17
2023-03-04T18:21:53.974Z,13.10
2023-03-04T18:24:48.531Z,12.83
2023-03-04T18:27:46.233Z,12.23
2023-03-04T18:30:29.619Z,13.53
2023-03-04T18:33:03.207Z,12.70
2023-03-04T18:35:56.180Z,13.03
2023-03-04T18:38:58.351Z,13.50
2023-03-04T18:41:30.329Z,13.17
2023-03-04T18:44:14.503Z,13.73
2023-03-04T18:46:52.207Z,14.23
2023-03-04T18:49:44.333Z,13.43
2023-03-04T18:52:28.732Z,12.83
2023-03-04T18:55:25.116Z,13.33
2023-03-04T18:58:05.943Z,13.97
2023-03-04T19:00:45.571Z,12.60
2023-03-04T19:03:34.458Z,13.23
2023-03-04T19:06:09.307Z,13.03
2023-03-04T19:09:02.897Z,12.23
2023-03-04T19:12:05.645Z,13.07
2023-03-04T19:14:45.028Z,12.60
2023-03-04T19:17:35.299Z,13.70
2023-03-04T19:20:17.841Z,13.30
2023-03-04T19:23:01.686Z,14.43
2023-03-04T19:25:48.388Z,14.30
2023-03-04T19:28:39.906Z,15.17
2023-03-04T19:31:49.322Z,14.90
2023-03-04T19:34:28.729Z,14.60
2023-03-04T19:37:12.196Z,15.20
2023-03-04T19:39:49.465Z,14.43
2023-03-04T19:42:33.435Z,14.07
2023-03-04T19:45:13.372Z,14.37
2023-03-04T19:47:54.413Z,15.57
2023-03-04T19:50:46.911Z,15.00
2023-03-04T19:53:32.914Z,14.33
2023-03-04T19:56:23.009Z,13.73
2023-03-04T19:59:05.293Z,15.30
2023-03-04T20:02:16.353Z,14.43
2023-03-04T20:05:05.369Z,14.27
2023-03-04T20:07:40.407Z,13.33
2023-03-04T20:10:16.276Z,14.57
2023-03-04T20:13:09.461Z,15.10
2023-03-04T20:15:52.508Z,13.10
2023-03-04T20:18:48.366Z,15.40
2023-03-04T20:21:45.499Z,15.23
2023-03-04T20:24:32.421Z,14.80
2023-03-04T20:27:04.820Z,14.50
2023-03-04T20:29:45.028Z,13.93
2023-03-04T20:32:35.920Z,14.17
2023-03-04T20:35:42.134Z,13.53
2023-03-04T20:38:21.329Z,14.70
2023-03-04T20:41:06.129Z,13.07
2023-03-04T20:43:55.893Z,13.73
2023-03-04T20:46:58.268Z,14.83
2023-03-04T20:49:40.792Z,13.27
2023-03-04T20:52:41.342Z,12.93
2023-03-04T20:55:34.970Z,11.33
2023-03-04T20:58:25.984Z,13.80
2023-03-04T21:01:14.352Z,14.30
2023-03-04T21:03:53.167Z,13.83
2023-03-04T21:06:40.084Z,13.83
2023-03-04T21:09:27.187Z,14.47
2023-03-04T21:12:24.499Z,14.10
2023-03-04T21:15:12.995Z,13.97
2023-03-04T21:17:49.074Z,14.43
2023-03-04T21:20:27.910Z,15.77
2023-03-04T21:23:15.140Z,14.80
2023-03-04T21:25:58.705Z,14.97
2023-03-04T21:28:47.678Z,15.03
2023-03-04T21:31:30.667Z,14.97
2023-03-04T21:34:39.940Z,14.23
2023-03-04T21:37:24.401Z,14.83
2023-03-04T21:40:20.363Z,16.07
2023-03-04T21:43:11.173Z,14.17
2023-03-04T21:45:47.190Z,14.40
2023-03-04T21:48:21.233Z,14.17
2023-03-04T21:50:54.520Z,13.33
2023-03-04T21:53:39.169Z,13.73
2023-03-04T21:56:28.775Z,14.10
2023-03-04T21:59:19.634Z,15.60
2023-03-04T22:01:58.194Z,17.77
2023-03-04T22:04:57.996Z,14.17
2023-03-04T22:07:40.424Z,15.00
2023-03-04T22:10:31.437Z,13.97
2023-03-04T22:13:03.731Z,14.10
2023-03-04T22:15:50.739Z,15.20
2023-03-04T22:18:57.716Z,13.77
2023-03-04T22:21:32.287Z,14.30
2023-03-04T22:24:32.846Z,13.20
2023-03-04T22:27:22.190Z,14.33
2023-03-04T22:30:01.051Z,14.17
2023-03-04T22:32:39.806Z,15.30
2023-03-04T22:35:24.003Z,16.30
2023-03-04T22:38:17.436Z,15.20
2023-03-04T22:40:54.008Z,17.53
2023-03-04T22:43:42.176Z,18.83
2023-03-04T22:46:23.214Z,16.23
2023-03-04T22:49:05.112Z,14.50
2023-03-04T22:51:38.291Z,14.00
2023-03-04T22:54:15.768Z,14.63
2023-03-04T22:57:02.303Z,14.00
2023-03-04T22:59:38.244Z,14.10
2023-03-04T23:02:21.393Z,13.77
2023-03-04T23:05:05.339Z,14.47
2023-03-04T23:07:44.262Z,13.33
2023-03-04T23:10:33.690Z,14.63
2023-03-04T23:13:38.519Z,14.90
2023-03-04T23:16:28.722Z,14.70
2023-03-04T23:19:18.676Z,14.37
2023-03-04T23:22:15.250Z,14.13
2023-03-04T23:25:19.332Z,14.00
2023-03-04T23:28:13.696Z,13.20
2023-03-04T23:30:51.285Z,12.90
2023-03-04T23:33:31.794Z,13.17
2023-03-04T23:36:19.116Z,14.73
2023-03-04T23:39:13.027Z,14.07
2023-03-04T23:41:48.413Z,11.67
2023-03-04T23:44:43.670Z,11.17
2023-03-04T23:47:14.916Z,13.60
2023-03-04T23:50:22.850Z,12.70
2023-03-04T23:53:19.054Z,12.90
2023-03-04T23:56:01.116Z,12.60
2023-03-04T23:58:47.316Z,12.10
